sensor_id;sensor_type;location;lat;lon;timestamp;pressure;altitude;pressure_sealevel;temperature;humidity
84835;BME280;75078;42.636;23.198;2024-01-15T00:02:06;91492.91;;;-2.42;67.76
84835;BME280;75078;42.636;23.198;2024-01-15T00:04:39;91492.72;;;-2.32;66.74
84835;BME280;75078;42.636;23.198;2024-01-15T00:07:05;91486.75;;;-2.23;66.53
84835;BME280;75078;42.636;23.198;2024-01-15T00:09:31;91481.03;;;-2.28;67.10
84835;BME280;75078;42.636;23.198;2024-01-15T00:11:56;91485.44;;;-2.20;66.27
84835;BME280;75078;42.636;23.198;2024-01-15T00:14:22;91477.28;;;-2.17;65.99
84835;BME280;75078;42.636;23.198;2024-01-15T00:16:48;91478.34;;;-2.18;65.87
84835;BME280;75078;42.636;23.198;2024-01-15T00:19:15;91481.03;;;-2.28;66.60
84835;BME280;75078;42.636;23.198;2024-01-15T00:21:41;91480.94;;;-2.23;66.36
84835;BME280;75078;42.636;23.198;2024-01-15T00:24:06;91480.59;;;-2.30;67.06
84835;BME280;75078;42.636;23.198;2024-01-15T00:26:32;91482.16;;;-2.34;67.25
84835;BME280;75078;42.636;23.198;2024-01-15T00:28:57;91483.09;;;-2.30;66.60
84835;BME280;75078;42.636;23.198;2024-01-15T00:31:22;91483.94;;;-2.21;66.62
84835;BME280;75078;42.636;23.198;2024-01-15T00:33:48;91481.88;;;-2.19;66.30
84835;BME280;75078;42.636;23.198;2024-01-15T00:36:13;91485.16;;;-2.19;66.69
84835;BME280;75078;42.636;23.198;2024-01-15T00:38:39;91487.13;;;-2.29;66.58
84835;BME280;75078;42.636;23.198;2024-01-15T00:41:05;91484.53;;;-2.38;66.71
84835;BME280;75078;42.636;23.198;2024-01-15T00:43:30;91480.03;;;-2.27;66.18
84835;BME280;75078;42.636;23.198;2024-01-15T00:45:55;91485.16;;;-2.32;66.14
84835;BME280;75078;42.636;23.198;2024-01-15T00:48:21;91486.53;;;-2.26;66.03
84835;BME280;75078;42.636;23.198;2024-01-15T00:50:46;91490.28;;;-2.37;66.12
84835;BME280;75078;42.636;23.198;2024-01-15T00:53:12;91482.47;;;-2.36;65.37
84835;BME280;75078;42.636;23.198;2024-01-15T00:55:37;91480.94;;;-2.23;65.14
84835;BME280;75078;42.636;23.198;2024-01-15T00:58:03;91477.13;;;-2.34;65.91
84835;BME280;75078;42.636;23.198;2024-01-15T01:00:29;91479.09;;;-2.31;65.51
84835;BME280;75078;42.636;23.198;2024-01-15T01:02:54;91478.16;;;-2.35;65.24
84835;BME280;75078;42.636;23.198;2024-01-15T01:05:20;91477.78;;;-2.29;64.51
84835;BME280;75078;42.636;23.198;2024-01-15T01:07:45;91473.75;;;-2.16;63.31
84835;BME280;75078;42.636;23.198;2024-01-15T01:10:10;91475.34;;;-2.20;63.74
84835;BME280;75078;42.636;23.198;2024-01-15T01:12:36;91475.25;;;-2.15;63.30
84835;BME280;75078;42.636;23.198;2024-01-15T01:15:01;91475.81;;;-2.18;63.41
84835;BME280;75078;42.636;23.198;2024-01-15T01:17:27;91467.13;;;-2.12;62.44
84835;BME280;75078;42.636;23.198;2024-01-15T01:19:53;91474.03;;;-2.04;62.21
84835;BME280;75078;42.636;23.198;2024-01-15T01:22:18;91465.41;;;-2.03;62.22
84835;BME280;75078;42.636;23.198;2024-01-15T01:24:44;91459.28;;;-2.10;62.01
84835;BME280;75078;42.636;23.198;2024-01-15T01:27:09;91457.22;;;-2.08;62.11
84835;BME280;75078;42.636;23.198;2024-01-15T01:29:34;91451.78;;;-2.02;61.70
84835;BME280;75078;42.636;23.198;2024-01-15T01:32:00;91458.91;;;-2.04;61.56
84835;BME280;75078;42.636;23.198;2024-01-15T01:34:25;91453.50;;;-2.11;62.57
84835;BME280;75078;42.636;23.198;2024-01-15T01:36:51;91450.50;;;-2.13;62.13
84835;BME280;75078;42.636;23.198;2024-01-15T01:39:16;91457.41;;;-2.19;62.69
84835;BME280;75078;42.636;23.198;2024-01-15T01:41:42;91451.44;;;-2.23;62.42
84835;BME280;75078;42.636;23.198;2024-01-15T01:44:08;91444.34;;;-2.21;62.26
84835;BME280;75078;42.636;23.198;2024-01-15T01:46:34;91442.38;;;-2.24;62.41
84835;BME280;75078;42.636;23.198;2024-01-15T01:49:04;91442.69;;;-2.25;62.57
84835;BME280;75078;42.636;23.198;2024-01-15T01:51:31;91440.25;;;-2.30;62.17
84835;BME280;75078;42.636;23.198;2024-01-15T01:53:58;91435.88;;;-2.38;62.94
84835;BME280;75078;42.636;23.198;2024-01-15T01:56:24;91438.41;;;-2.38;62.95
84835;BME280;75078;42.636;23.198;2024-01-15T01:58:49;91434.38;;;-2.39;62.77
84835;BME280;75078;42.636;23.198;2024-01-15T02:01:15;91430.38;;;-2.40;62.41
84835;BME280;75078;42.636;23.198;2024-01-15T02:03:41;91438.41;;;-2.38;62.41
84835;BME280;75078;42.636;23.198;2024-01-15T02:06:07;91431.88;;;-2.39;61.98
84835;BME280;75078;42.636;23.198;2024-01-15T02:08:34;91433.38;;;-2.38;62.33
84835;BME280;75078;42.636;23.198;2024-01-15T02:11:00;91431.31;;;-2.36;61.36
84835;BME280;75078;42.636;23.198;2024-01-15T02:13:25;91423.56;;;-2.40;62.30
84835;BME280;75078;42.636;23.198;2024-01-15T02:15:50;91413.84;;;-2.33;61.57
84835;BME280;75078;42.636;23.198;2024-01-15T02:18:16;91406.41;;;-2.38;61.47
84835;BME280;75078;42.636;23.198;2024-01-15T02:20:41;91382.75;;;-2.28;61.32
84835;BME280;75078;42.636;23.198;2024-01-15T02:23:14;91373.59;;;-2.24;60.06
84835;BME280;75078;42.636;23.198;2024-01-15T02:25:41;91372.22;;;-2.08;60.38
84835;BME280;75078;42.636;23.198;2024-01-15T02:28:11;91369.44;;;-2.06;60.40
84835;BME280;75078;42.636;23.198;2024-01-15T02:30:38;91363.66;;;-2.07;60.34
84835;BME280;75078;42.636;23.198;2024-01-15T02:33:04;91364.41;;;-2.06;60.94
84835;BME280;75078;42.636;23.198;2024-01-15T02:35:30;91372.59;;;-2.01;61.59
84835;BME280;75078;42.636;23.198;2024-01-15T02:37:55;91359.88;;;-1.96;61.66
84835;BME280;75078;42.636;23.198;2024-01-15T02:40:21;91355.75;;;-1.92;61.46
84835;BME280;75078;42.636;23.198;2024-01-15T02:42:46;91354.25;;;-1.93;61.58
84835;BME280;75078;42.636;23.198;2024-01-15T02:45:11;91354.72;;;-1.91;62.73
84835;BME280;75078;42.636;23.198;2024-01-15T02:47:37;91357.91;;;-1.99;62.75
84835;BME280;75078;42.636;23.198;2024-01-15T02:50:02;91361.72;;;-1.88;62.75
84835;BME280;75078;42.636;23.198;2024-01-15T02:52:28;91358.50;;;-1.80;62.83
84835;BME280;75078;42.636;23.198;2024-01-15T02:54:53;91360.28;;;-1.80;62.60
84835;BME280;75078;42.636;23.198;2024-01-15T02:57:19;91365.63;;;-1.82;62.82
84835;BME280;75078;42.636;23.198;2024-01-15T02:59:44;91347.22;;;-1.82;61.86
84835;BME280;75078;42.636;23.198;2024-01-15T03:02:09;91357.75;;;-1.80;62.39
84835;BME280;75078;42.636;23.198;2024-01-15T03:04:35;91354.56;;;-1.72;61.58
84835;BME280;75078;42.636;23.198;2024-01-15T03:07:00;91346.22;;;-1.73;61.85
84835;BME280;75078;42.636;23.198;2024-01-15T03:09:25;91343.75;;;-1.64;61.75
84835;BME280;75078;42.636;23.198;2024-01-15T03:11:51;91348.19;;;-1.70;61.74
84835;BME280;75078;42.636;23.198;2024-01-15T03:14:16;91339.34;;;-1.59;60.66
84835;BME280;75078;42.636;23.198;2024-01-15T03:16:41;91331.91;;;-1.64;61.49
84835;BME280;75078;42.636;23.198;2024-01-15T03:19:07;91323.28;;;-1.63;61.63
84835;BME280;75078;42.636;23.198;2024-01-15T03:21:32;91326.28;;;-1.61;61.50
84835;BME280;75078;42.636;23.198;2024-01-15T03:23:57;91319.63;;;-1.57;61.74
84835;BME280;75078;42.636;23.198;2024-01-15T03:26:23;91314.19;;;-1.41;59.85
84835;BME280;75078;42.636;23.198;2024-01-15T03:28:48;91301.59;;;-1.33;59.32
84835;BME280;75078;42.636;23.198;2024-01-15T03:31:13;91315.41;;;-1.30;60.36
84835;BME280;75078;42.636;23.198;2024-01-15T03:33:39;91315.75;;;-1.23;59.41
84835;BME280;75078;42.636;23.198;2024-01-15T03:36:05;91319.28;;;-1.24;61.00
84835;BME280;75078;42.636;23.198;2024-01-15T03:38:30;91324.22;;;-1.19;59.11
84835;BME280;75078;42.636;23.198;2024-01-15T03:40:55;91322.03;;;-1.12;59.97
84835;BME280;75078;42.636;23.198;2024-01-15T03:43:21;91313.75;;;-1.04;59.04
84835;BME280;75078;42.636;23.198;2024-01-15T03:45:46;91310.63;;;-0.93;58.48
84835;BME280;75078;42.636;23.198;2024-01-15T03:48:11;91311.41;;;-0.84;58.97
84835;BME280;75078;42.636;23.198;2024-01-15T03:50:37;91305.75;;;-0.89;59.38
84835;BME280;75078;42.636;23.198;2024-01-15T03:53:02;91306.00;;;-0.99;60.66
84835;BME280;75078;42.636;23.198;2024-01-15T03:55:28;91290.13;;;-1.00;58.54
84835;BME280;75078;42.636;23.198;2024-01-15T03:57:53;91303.94;;;-0.97;60.20
84835;BME280;75078;42.636;23.198;2024-01-15T04:00:19;91288.50;;;-0.96;58.55
84835;BME280;75078;42.636;23.198;2024-01-15T04:02:44;91276.78;;;-0.92;59.16
84835;BME280;75078;42.636;23.198;2024-01-15T04:05:10;91274.38;;;-0.97;59.43
84835;BME280;75078;42.636;23.198;2024-01-15T04:07:35;91278.09;;;-0.94;59.02
84835;BME280;75078;42.636;23.198;2024-01-15T04:10:01;91276.31;;;-1.02;59.38
84835;BME280;75078;42.636;23.198;2024-01-15T04:12:26;91278.06;;;-1.11;60.78
84835;BME280;75078;42.636;23.198;2024-01-15T04:14:51;91272.31;;;-1.42;63.23
84835;BME280;75078;42.636;23.198;2024-01-15T04:17:17;91270.25;;;-1.40;62.79
84835;BME280;75078;42.636;23.198;2024-01-15T04:19:45;91275.72;;;-1.78;64.11
84835;BME280;75078;42.636;23.198;2024-01-15T04:22:13;91276.31;;;-2.03;63.95
84835;BME280;75078;42.636;23.198;2024-01-15T04:24:38;91266.94;;;-2.11;64.41
84835;BME280;75078;42.636;23.198;2024-01-15T04:27:04;91278.69;;;-2.29;64.97
84835;BME280;75078;42.636;23.198;2024-01-15T04:29:29;91287.72;;;-2.28;65.63
84835;BME280;75078;42.636;23.198;2024-01-15T04:31:54;91301.97;;;-2.45;66.73
84835;BME280;75078;42.636;23.198;2024-01-15T04:34:20;91285.72;;;-2.39;66.33
84835;BME280;75078;42.636;23.198;2024-01-15T04:36:45;91292.00;;;-2.50;65.94
84835;BME280;75078;42.636;23.198;2024-01-15T04:39:10;91294.06;;;-2.52;66.60
84835;BME280;75078;42.636;23.198;2024-01-15T04:41:37;91289.38;;;-2.45;66.18
84835;BME280;75078;42.636;23.198;2024-01-15T04:44:02;91294.81;;;-2.52;65.71
84835;BME280;75078;42.636;23.198;2024-01-15T04:46:28;91298.28;;;-2.61;65.85
84835;BME280;75078;42.636;23.198;2024-01-15T04:48:53;91301.25;;;-2.59;65.68
84835;BME280;75078;42.636;23.198;2024-01-15T04:51:19;91291.09;;;-2.54;65.64
84835;BME280;75078;42.636;23.198;2024-01-15T04:53:44;91288.09;;;-2.56;66.15
84835;BME280;75078;42.636;23.198;2024-01-15T04:56:10;91292.94;;;-2.24;65.51
84835;BME280;75078;42.636;23.198;2024-01-15T04:58:35;91288.56;;;-2.10;65.28
84835;BME280;75078;42.636;23.198;2024-01-15T05:01:00;91282.97;;;-2.07;64.70
84835;BME280;75078;42.636;23.198;2024-01-15T05:03:26;91276.53;;;-1.91;63.77
84835;BME280;75078;42.636;23.198;2024-01-15T05:05:51;91272.75;;;-1.80;65.09
84835;BME280;75078;42.636;23.198;2024-01-15T05:08:16;91267.13;;;-1.77;63.95
84835;BME280;75078;42.636;23.198;2024-01-15T05:10:42;91275.72;;;-1.78;63.57
84835;BME280;75078;42.636;23.198;2024-01-15T05:13:07;91267.78;;;-1.63;62.62
84835;BME280;75078;42.636;23.198;2024-01-15T05:15:33;91270.94;;;-1.49;62.74
84835;BME280;75078;42.636;23.198;2024-01-15T05:17:58;91271.91;;;-1.36;61.54
84835;BME280;75078;42.636;23.198;2024-01-15T05:20:23;91260.00;;;-1.35;62.43
84835;BME280;75078;42.636;23.198;2024-01-15T05:22:49;91264.53;;;-1.15;60.59
84835;BME280;75078;42.636;23.198;2024-01-15T05:25:14;91258.59;;;-1.11;61.09
84835;BME280;75078;42.636;23.198;2024-01-15T05:27:39;91250.59;;;-1.04;59.97
84835;BME280;75078;42.636;23.198;2024-01-15T05:30:05;91245.56;;;-0.87;59.70
84835;BME280;75078;42.636;23.198;2024-01-15T05:32:32;91245.13;;;-0.72;58.14
84835;BME280;75078;42.636;23.198;2024-01-15T05:34:57;91239.81;;;-0.62;58.48
84835;BME280;75078;42.636;23.198;2024-01-15T05:37:22;91241.56;;;-0.54;57.92
84835;BME280;75078;42.636;23.198;2024-01-15T05:39:48;91228.63;;;-0.35;57.26
84835;BME280;75078;42.636;23.198;2024-01-15T05:42:13;91232.34;;;-0.33;56.65
84835;BME280;75078;42.636;23.198;2024-01-15T05:44:38;91219.41;;;-0.31;56.51
84835;BME280;75078;42.636;23.198;2024-01-15T05:47:04;91220.31;;;-0.27;57.36
84835;BME280;75078;42.636;23.198;2024-01-15T05:49:30;91219.41;;;-0.31;57.90
84835;BME280;75078;42.636;23.198;2024-01-15T05:51:55;91243.22;;;-0.66;60.07
84835;BME280;75078;42.636;23.198;2024-01-15T05:54:20;91246.63;;;-0.71;59.47
84835;BME280;75078;42.636;23.198;2024-01-15T05:56:46;91246.34;;;-0.69;59.06
84835;BME280;75078;42.636;23.198;2024-01-15T05:59:11;91238.31;;;-0.46;58.31
84835;BME280;75078;42.636;23.198;2024-01-15T06:01:37;91230.28;;;-0.48;58.35
84835;BME280;75078;42.636;23.198;2024-01-15T06:04:02;91230.13;;;-0.26;57.20
84835;BME280;75078;42.636;23.198;2024-01-15T06:06:27;91225.50;;;-0.24;56.52
84835;BME280;75078;42.636;23.198;2024-01-15T06:08:53;91218.06;;;-0.29;57.58
84835;BME280;75078;42.636;23.198;2024-01-15T06:11:18;91226.09;;;-0.27;57.48
84835;BME280;75078;42.636;23.198;2024-01-15T06:13:43;91229.69;;;-0.28;57.96
84835;BME280;75078;42.636;23.198;2024-01-15T06:16:15;91236.06;;;-0.22;56.15
84835;BME280;75078;42.636;23.198;2024-01-15T06:18:45;91237.13;;;-0.23;57.32
84835;BME280;75078;42.636;23.198;2024-01-15T06:21:11;91235.03;;;-0.21;57.15
84835;BME280;75078;42.636;23.198;2024-01-15T06:23:38;91235.47;;;-0.10;56.07
84835;BME280;75078;42.636;23.198;2024-01-15T06:26:03;91233.53;;;-0.05;56.02
84835;BME280;75078;42.636;23.198;2024-01-15T06:28:29;91216.97;;;-0.02;55.93
84835;BME280;75078;42.636;23.198;2024-01-15T06:30:54;91217.69;;;0.07;55.80
84835;BME280;75078;42.636;23.198;2024-01-15T06:33:19;91212.19;;;0.14;56.87
84835;BME280;75078;42.636;23.198;2024-01-15T06:35:45;91216.47;;;0.22;55.72
84835;BME280;75078;42.636;23.198;2024-01-15T06:38:10;91222.41;;;0.26;55.51
84835;BME280;75078;42.636;23.198;2024-01-15T06:40:36;91225.06;;;0.38;54.26
84835;BME280;75078;42.636;23.198;2024-01-15T06:43:01;91226.81;;;0.46;54.94
84835;BME280;75078;42.636;23.198;2024-01-15T06:45:26;91220.69;;;0.55;54.38
84835;BME280;75078;42.636;23.198;2024-01-15T06:47:52;91220.91;;;0.71;53.81
84835;BME280;75078;42.636;23.198;2024-01-15T06:50:17;91215.06;;;0.79;52.77
84835;BME280;75078;42.636;23.198;2024-01-15T06:52:42;91211.13;;;0.90;52.14
84835;BME280;75078;42.636;23.198;2024-01-15T06:55:08;91212.59;;;0.91;52.60
84835;BME280;75078;42.636;23.198;2024-01-15T06:57:33;91213.44;;;1.04;51.87
84835;BME280;75078;42.636;23.198;2024-01-15T06:59:59;91210.09;;;1.12;53.06
84835;BME280;75078;42.636;23.198;2024-01-15T07:02:24;91218.28;;;1.17;51.77
84835;BME280;75078;42.636;23.198;2024-01-15T07:04:49;91228.22;;;1.22;51.43
84835;BME280;75078;42.636;23.198;2024-01-15T07:07:15;91228.47;;;1.29;51.62
84835;BME280;75078;42.636;23.198;2024-01-15T07:09:40;91235.78;;;1.31;51.99
84835;BME280;75078;42.636;23.198;2024-01-15T07:12:06;91236.31;;;1.36;51.58
84835;BME280;75078;42.636;23.198;2024-01-15T07:14:31;91234.03;;;1.43;51.96
84835;BME280;75078;42.636;23.198;2024-01-15T07:16:57;91237.38;;;1.56;51.30
84835;BME280;75078;42.636;23.198;2024-01-15T07:19:22;91229.28;;;1.42;51.90
84835;BME280;75078;42.636;23.198;2024-01-15T07:21:47;91218.94;;;1.47;53.23
84835;BME280;75078;42.636;23.198;2024-01-15T07:24:13;91216.97;;;1.53;52.79
84835;BME280;75078;42.636;23.198;2024-01-15T07:26:38;91213.50;;;1.57;53.41
84835;BME280;75078;42.636;23.198;2024-01-15T07:29:04;91214.50;;;1.65;51.46
84835;BME280;75078;42.636;23.198;2024-01-15T07:31:29;91211.25;;;1.76;52.52
84835;BME280;75078;42.636;23.198;2024-01-15T07:33:55;91203.81;;;1.92;51.50
84835;BME280;75078;42.636;23.198;2024-01-15T07:36:20;91215.78;;;2.03;51.34
84835;BME280;75078;42.636;23.198;2024-01-15T07:38:45;91212.41;;;2.11;51.06
84835;BME280;75078;42.636;23.198;2024-01-15T07:41:12;91214.19;;;1.99;51.35
84835;BME280;75078;42.636;23.198;2024-01-15T07:43:38;91217.50;;;2.11;50.90
84835;BME280;75078;42.636;23.198;2024-01-15T07:46:04;91216.88;;;2.14;51.68
84835;BME280;75078;42.636;23.198;2024-01-15T07:48:29;91217.53;;;2.24;51.44
84835;BME280;75078;42.636;23.198;2024-01-15T07:50:55;91204.72;;;2.20;52.57
84835;BME280;75078;42.636;23.198;2024-01-15T07:53:20;91204.72;;;2.20;53.95
84835;BME280;75078;42.636;23.198;2024-01-15T07:55:45;91208.66;;;1.85;52.73
84835;BME280;75078;42.636;23.198;2024-01-15T07:58:11;91204.72;;;1.55;53.92
84835;BME280;75078;42.636;23.198;2024-01-15T08:00:37;91220.81;;;1.17;55.50
84835;BME280;75078;42.636;23.198;2024-01-15T08:03:02;91219.06;;;1.09;54.86
84835;BME280;75078;42.636;23.198;2024-01-15T08:05:28;91213.56;;;0.78;56.01
84835;BME280;75078;42.636;23.198;2024-01-15T08:07:53;91220.75;;;0.76;56.09
84835;BME280;75078;42.636;23.198;2024-01-15T08:10:18;91224.44;;;0.79;56.94
84835;BME280;75078;42.636;23.198;2024-01-15T08:12:44;91216.06;;;0.87;57.73
84835;BME280;75078;42.636;23.198;2024-01-15T08:15:09;91220.41;;;1.07;59.77
84835;BME280;75078;42.636;23.198;2024-01-15T08:17:35;91222.53;;;1.67;59.10
84835;BME280;75078;42.636;23.198;2024-01-15T08:20:00;91218.84;;;2.09;58.34
84835;BME280;75078;42.636;23.198;2024-01-15T08:22:26;91217.69;;;2.63;56.66
84835;BME280;75078;42.636;23.198;2024-01-15T08:24:51;91207.50;;;2.87;56.79
84835;BME280;75078;42.636;23.198;2024-01-15T08:27:17;91214.25;;;3.08;56.29
84835;BME280;75078;42.636;23.198;2024-01-15T08:29:42;91212.78;;;3.19;54.79
84835;BME280;75078;42.636;23.198;2024-01-15T08:32:08;91210.41;;;3.38;54.79
84835;BME280;75078;42.636;23.198;2024-01-15T08:34:39;91206.41;;;3.25;50.20
84835;BME280;75078;42.636;23.198;2024-01-15T08:37:04;91204.53;;;2.85;51.55
84835;BME280;75078;42.636;23.198;2024-01-15T08:39:29;91215.88;;;2.52;51.80
84835;BME280;75078;42.636;23.198;2024-01-15T08:41:55;91212.94;;;2.05;52.74
84835;BME280;75078;42.636;23.198;2024-01-15T08:44:20;91205.50;;;2.00;53.52
84835;BME280;75078;42.636;23.198;2024-01-15T08:46:45;91213.72;;;1.85;53.62
84835;BME280;75078;42.636;23.198;2024-01-15T08:49:11;91214.38;;;1.40;55.10
84835;BME280;75078;42.636;23.198;2024-01-15T08:51:36;91205.22;;;1.48;56.19
84835;BME280;75078;42.636;23.198;2024-01-15T08:54:03;91201.22;;;1.80;58.69
84835;BME280;75078;42.636;23.198;2024-01-15T08:56:28;91192.03;;;2.32;58.29
84835;BME280;75078;42.636;23.198;2024-01-15T08:58:54;91189.09;;;2.90;54.74
84835;BME280;75078;42.636;23.198;2024-01-15T09:01:19;91196.56;;;3.23;56.36
84835;BME280;75078;42.636;23.198;2024-01-15T09:03:44;91182.59;;;3.57;54.99
84835;BME280;75078;42.636;23.198;2024-01-15T09:06:11;91173.13;;;3.85;54.49
84835;BME280;75078;42.636;23.198;2024-01-15T09:08:36;91155.16;;;3.94;53.97
84835;BME280;75078;42.636;23.198;2024-01-15T09:11:02;91163.91;;;4.08;55.15
84835;BME280;75078;42.636;23.198;2024-01-15T09:13:29;91164.72;;;4.12;54.34
84835;BME280;75078;42.636;23.198;2024-01-15T09:15:54;91163.84;;;4.20;53.73
84835;BME280;75078;42.636;23.198;2024-01-15T09:18:19;91159.22;;;4.26;53.54
84835;BME280;75078;42.636;23.198;2024-01-15T09:20:45;91155.28;;;4.28;53.24
84835;BME280;75078;42.636;23.198;2024-01-15T09:23:10;91153.91;;;4.31;54.35
84835;BME280;75078;42.636;23.198;2024-01-15T09:25:35;91139.94;;;4.41;54.95
84835;BME280;75078;42.636;23.198;2024-01-15T09:28:01;91137.69;;;4.39;53.28
84835;BME280;75078;42.636;23.198;2024-01-15T09:30:27;91147.59;;;4.41;55.08
84835;BME280;75078;42.636;23.198;2024-01-15T09:32:52;91143.13;;;4.38;53.82
84835;BME280;75078;42.636;23.198;2024-01-15T09:35:18;91146.34;;;4.34;52.90
84835;BME280;75078;42.636;23.198;2024-01-15T09:37:43;91143.72;;;4.31;53.17
84835;BME280;75078;42.636;23.198;2024-01-15T09:40:13;91141.34;;;4.22;53.13
84835;BME280;75078;42.636;23.198;2024-01-15T09:42:40;91128.03;;;4.13;55.35
84835;BME280;75078;42.636;23.198;2024-01-15T09:45:07;91118.66;;;4.17;52.98
84835;BME280;75078;42.636;23.198;2024-01-15T09:47:34;91101.63;;;4.21;53.43
84835;BME280;75078;42.636;23.198;2024-01-15T09:50:00;91092.53;;;4.20;54.54
84835;BME280;75078;42.636;23.198;2024-01-15T09:52:26;91078.06;;;4.24;55.61
84835;BME280;75078;42.636;23.198;2024-01-15T09:54:52;91075.59;;;4.28;54.72
84835;BME280;75078;42.636;23.198;2024-01-15T09:57:17;91069.44;;;4.29;55.38
84835;BME280;75078;42.636;23.198;2024-01-15T09:59:43;91083.84;;;4.56;55.18
84835;BME280;75078;42.636;23.198;2024-01-15T10:02:13;91088.38;;;4.63;55.21
84835;BME280;75078;42.636;23.198;2024-01-15T10:04:42;91081.28;;;4.72;54.36
84835;BME280;75078;42.636;23.198;2024-01-15T10:07:08;91085.13;;;4.81;54.54
84835;BME280;75078;42.636;23.198;2024-01-15T10:09:34;91075.66;;;4.82;53.90
84835;BME280;75078;42.636;23.198;2024-01-15T10:12:00;91059.69;;;4.85;53.95
84835;BME280;75078;42.636;23.198;2024-01-15T10:14:25;91063.78;;;4.89;54.96
84835;BME280;75078;42.636;23.198;2024-01-15T10:16:51;91054.53;;;5.00;54.64
84835;BME280;75078;42.636;23.198;2024-01-15T10:19:16;91052.53;;;5.09;55.22
84835;BME280;75078;42.636;23.198;2024-01-15T10:21:41;91048.28;;;5.36;54.95
84835;BME280;75078;42.636;23.198;2024-01-15T10:24:07;91027.31;;;5.46;55.03
84835;BME280;75078;42.636;23.198;2024-01-15T10:26:32;91029.59;;;5.51;53.09
84835;BME280;75078;42.636;23.198;2024-01-15T10:28:59;91031.66;;;5.65;53.73
84835;BME280;75078;42.636;23.198;2024-01-15T10:31:26;91033.22;;;5.92;52.93
84835;BME280;75078;42.636;23.198;2024-01-15T10:33:51;91016.22;;;6.26;51.32
84835;BME280;75078;42.636;23.198;2024-01-15T10:36:17;91039.81;;;6.42;51.71
84835;BME280;75078;42.636;23.198;2024-01-15T10:38:44;91048.50;;;6.37;53.03
84835;BME280;75078;42.636;23.198;2024-01-15T10:41:10;91043.44;;;6.41;51.52
84835;BME280;75078;42.636;23.198;2024-01-15T10:43:35;91028.09;;;6.41;51.81
84835;BME280;75078;42.636;23.198;2024-01-15T10:46:01;91034.38;;;6.47;52.00
84835;BME280;75078;42.636;23.198;2024-01-15T10:48:27;91023.78;;;6.45;51.59
84835;BME280;75078;42.636;23.198;2024-01-15T10:50:54;91028.38;;;6.36;52.17
84835;BME280;75078;42.636;23.198;2024-01-15T10:53:20;91010.59;;;6.17;51.11
84835;BME280;75078;42.636;23.198;2024-01-15T10:55:47;91005.94;;;6.22;50.53
84835;BME280;75078;42.636;23.198;2024-01-15T10:58:14;90999.63;;;6.16;51.18
84835;BME280;75078;42.636;23.198;2024-01-15T11:00:40;91000.06;;;5.96;52.18
84835;BME280;75078;42.636;23.198;2024-01-15T11:03:06;90991.09;;;5.82;52.17
84835;BME280;75078;42.636;23.198;2024-01-15T11:05:58;90990.69;;;5.80;50.82
84835;BME280;75078;42.636;23.198;2024-01-15T11:08:24;91002.56;;;5.69;51.33
84835;BME280;75078;42.636;23.198;2024-01-15T11:10:51;90984.50;;;5.59;51.96
84835;BME280;75078;42.636;23.198;2024-01-15T11:18:26;90969.53;;;5.57;52.16
84835;BME280;75078;42.636;23.198;2024-01-15T11:23:49;90984.56;;;5.62;51.47
84835;BME280;75078;42.636;23.198;2024-01-15T11:26:46;90979.84;;;5.64;52.61
84835;BME280;75078;42.636;23.198;2024-01-15T11:34:21;90983.97;;;5.72;51.52
84835;BME280;75078;42.636;23.198;2024-01-15T11:41:57;90971.00;;;5.58;52.79
84835;BME280;75078;42.636;23.198;2024-01-15T11:44:22;90962.34;;;5.63;52.16
84835;BME280;75078;42.636;23.198;2024-01-15T11:47:00;90967.84;;;5.65;51.51
84835;BME280;75078;42.636;23.198;2024-01-15T11:49:59;90956.09;;;5.60;51.59
84835;BME280;75078;42.636;23.198;2024-01-15T11:52:26;90953.19;;;5.62;51.89
84835;BME280;75078;42.636;23.198;2024-01-15T11:55:10;90955.38;;;5.63;52.05
84835;BME280;75078;42.636;23.198;2024-01-15T11:57:45;90955.28;;;5.56;51.59
84835;BME280;75078;42.636;23.198;2024-01-15T12:00:12;90941.22;;;5.43;51.75
84835;BME280;75078;42.636;23.198;2024-01-15T12:02:41;90951.69;;;5.38;53.46
84835;BME280;75078;42.636;23.198;2024-01-15T12:05:09;90945.69;;;5.27;53.40
84835;BME280;75078;42.636;23.198;2024-01-15T12:07:35;90932.94;;;5.27;52.94
84835;BME280;75078;42.636;23.198;2024-01-15T12:10:01;90943.09;;;5.24;52.71
84835;BME280;75078;42.636;23.198;2024-01-15T12:13:04;90946.31;;;5.21;54.30
84835;BME280;75078;42.636;23.198;2024-01-15T12:15:32;90948.41;;;5.15;54.24
84835;BME280;75078;42.636;23.198;2024-01-15T12:18:01;90954.72;;;5.21;55.31
84835;BME280;75078;42.636;23.198;2024-01-15T12:20:28;90933.22;;;5.22;54.75
84835;BME280;75078;42.636;23.198;2024-01-15T12:22:54;90937.25;;;5.23;55.84
84835;BME280;75078;42.636;23.198;2024-01-15T12:25:23;90934.56;;;5.16;55.75
84835;BME280;75078;42.636;23.198;2024-01-15T12:27:49;90937.50;;;5.18;54.12
84835;BME280;75078;42.636;23.198;2024-01-15T12:30:14;90924.75;;;5.18;54.59
84835;BME280;75078;42.636;23.198;2024-01-15T12:32:44;90929.25;;;5.25;54.77
84835;BME280;75078;42.636;23.198;2024-01-15T12:35:13;90926.38;;;5.26;54.42
84835;BME280;75078;42.636;23.198;2024-01-15T12:37:39;90925.59;;;5.22;53.79
84835;BME280;75078;42.636;23.198;2024-01-15T12:40:06;90915.41;;;5.26;55.78
84835;BME280;75078;42.636;23.198;2024-01-15T12:42:34;90923.53;;;5.31;56.61
84835;BME280;75078;42.636;23.198;2024-01-15T12:45:00;90922.34;;;5.25;56.20
84835;BME280;75078;42.636;23.198;2024-01-15T12:47:25;90918.38;;;5.28;56.21
84835;BME280;75078;42.636;23.198;2024-01-15T12:49:54;90925.28;;;5.27;57.20
84835;BME280;75078;42.636;23.198;2024-01-15T12:52:20;90924.88;;;5.25;55.54
84835;BME280;75078;42.636;23.198;2024-01-15T12:54:48;90913.63;;;5.26;54.58
84835;BME280;75078;42.636;23.198;2024-01-15T12:57:13;90913.72;;;5.33;55.48
84835;BME280;75078;42.636;23.198;2024-01-15T12:59:39;90912.53;;;5.27;55.87
84835;BME280;75078;42.636;23.198;2024-01-15T13:02:04;90905.97;;;5.26;54.92
84835;BME280;75078;42.636;23.198;2024-01-15T13:04:29;90907.53;;;5.34;55.95
84835;BME280;75078;42.636;23.198;2024-01-15T13:06:55;90895.16;;;5.36;55.44
84835;BME280;75078;42.636;23.198;2024-01-15T13:09:20;90905.38;;;5.36;56.10